Sully Station, Virginia
Current Conditions -  °F | °C
As of 12:52 PM on Thursday 30 Oct 2014 (Local Time) from KIAD Reporting Station
Scattered Clouds Scattered Clouds  
Wind Chill: 56°   Ceiling: Unl
Heat Index: 56°   Visibility: 10mi
Dew Point: 37°   Wind: 8mph
Humidity: 49%   Direction: 300°WNW
Pressure: 30.06"   Gusts: NA
Location:  38.853°N, 77.4732°W
Report Text: KIAD 301652Z 30007KT 10SM SCT045 13/03 A3006 RMK AO2 SLP181 T01330028
Loading
Personal Weather Stations






























Interactive Weather Map
Tropical Storm Tracking
New forecast layout! Learn more

10-Day Weather Forecast

Advertisements
Track Severe Weather on mobile